Terminal Aerodrome Forecast
Issued by NWS Greer, SC

Home | Current Version | Previous Version | Text Only | Print | Product List | Glossary On
Versions: 1 2 3 4 5 6 7 8 9 10 11 12 13 14 15 16 17 18 19 20 21 22 23 24 25 26 27
000
FTUS42 KGSP 060107 AAD
TAFGSP
TAF AMD
KGSP 060107Z 0601/0624 01011KT P6SM OVC025
     FM060800 03008KT P6SM BKN050
     FM061100 03006KT P6SM SCT050
     FM061400 04007KT P6SM SCT250
     FM061900 09003KT P6SM FEW250
     FM062000 18003KT P6SM FEW250=

USA.gov is the U.S. government's official web portal to all federal, state and local government web resources and services.